Time;durP1;ratioP1;P1;durP2;ratioP2;P2;SDS_P1;SDS_P2;PMS_P1;PMS_P2;Temp;Humidity;BMP_temperature;BMP_pressure;BME280_temperature;BME280_humidity;BME280_pressure;Samples;Min_cycle;Max_cycle;Signal;HPM_P1;HPM_P2
2022/07/19 00:02:05;;;;;;;10.03;5.83;;;;;;;17.71;65.45;99207.11;1750708;81;27412;-64
2022/07/19 00:04:34;;;;;;;9.68;5.33;;;;;;;17.71;65.45;99202.95;1751070;82;25656;-64
2022/07/19 00:07:00;;;;;;;8.98;5.47;;;;;;;17.78;65.44;99200.39;1750202;81;25472;-63
2022/07/19 00:09:27;;;;;;;7.37;5.03;;;;;;;17.87;64.97;99201.08;1751002;82;25407;-64
2022/07/19 00:11:55;;;;;;;7.37;4.87;;;;;;;17.96;64.93;99199.55;1751161;81;25605;-63
2022/07/19 00:14:22;;;;;;;10.70;4.90;;;;;;;17.93;65.25;99201.06;1751077;81;27425;-64
2022/07/19 00:16:49;;;;;;;8.43;5.22;;;;;;;17.80;66.17;99204.45;1750574;81;25436;-64
2022/07/19 00:19:15;;;;;;;7.87;4.97;;;;;;;17.70;66.30;99212.44;1750701;82;25732;-64
2022/07/19 00:21:42;;;;;;;8.15;4.78;;;;;;;17.65;65.83;99203.78;1751245;81;25629;-64
2022/07/19 00:24:08;;;;;;;7.78;5.12;;;;;;;17.74;65.60;99210.00;1751167;81;25583;-64
2022/07/19 00:26:35;;;;;;;11.03;5.42;;;;;;;17.84;65.80;99210.09;1751029;81;27628;-64
2022/07/19 00:29:01;;;;;;;8.33;4.53;;;;;;;17.79;66.69;99212.52;1750997;81;25421;-64
2022/07/19 00:31:28;;;;;;;8.05;4.70;;;;;;;17.60;67.39;99213.14;1751034;82;25575;-64
2022/07/19 00:33:54;;;;;;;7.83;5.05;;;;;;;17.43;66.63;99212.23;1750676;81;27588;-64
2022/07/19 00:36:20;;;;;;;6.08;4.67;;;;;;;17.49;66.60;99209.20;1750747;82;25715;-63
2022/07/19 00:38:47;;;;;;;8.15;4.70;;;;;;;17.55;65.88;99210.02;1750938;81;26820;-63
2022/07/19 00:41:13;;;;;;;6.20;4.67;;;;;;;17.69;65.80;99211.62;1750939;81;25479;-64
2022/07/19 00:43:41;;;;;;;7.47;5.10;;;;;;;17.67;65.99;99208.37;1751180;81;25460;-63
2022/07/19 00:46:18;;;;;;;7.83;4.53;;;;;;;17.66;65.81;99206.20;1750748;81;25757;-64
2022/07/19 00:48:44;;;;;;;8.45;4.62;;;;;;;17.69;65.70;99206.08;1747635;81;25456;-63
2022/07/19 00:51:14;;;;;;;7.78;4.65;;;;;;;17.66;66.47;99205.39;1750747;81;28289;-64
2022/07/19 00:53:42;;;;;;;8.10;4.90;;;;;;;17.58;66.70;99206.34;1750880;81;25598;-64
2022/07/19 00:56:12;;;;;;;7.55;4.00;;;;;;;17.64;66.42;99212.66;1750938;81;25472;-62
2022/07/19 00:58:40;;;;;;;;;;;;;;;17.71;65.19;99205.73;1753780;82;25456;-63
2022/07/19 01:01:08;;;;;;;6.62;3.58;;;;;;;17.79;62.88;99204.20;1751027;81;25402;-63
2022/07/19 01:03:37;;;;;;;9.18;4.17;;;;;;;17.90;63.35;99200.37;1751058;81;27365;-62
2022/07/19 01:06:04;;;;;;;5.92;3.17;;;;;;;17.87;64.50;99202.46;1750982;82;25420;-63
2022/07/19 01:08:31;;;;;;;6.87;3.35;;;;;;;17.81;63.54;99211.61;1750971;81;25448;-63
2022/07/19 01:10:57;;;;;;;7.05;3.05;;;;;;;17.87;62.25;99203.84;1750625;82;25659;-63
2022/07/19 01:13:24;;;;;;;4.45;3.20;;;;;;;17.96;61.30;99197.38;1751120;82;25587;-64
2022/07/19 01:15:50;;;;;;;5.40;3.37;;;;;;;17.98;61.88;99201.40;1750969;81;28141;-64
2022/07/19 01:18:17;;;;;;;6.90;3.67;;;;;;;17.99;61.52;99200.83;1750567;82;25674;-63
2022/07/19 01:20:42;;;;;;;6.20;3.40;;;;;;;17.96;61.19;99206.48;1751115;81;25662;-62
2022/07/19 01:23:08;;;;;;;6.95;3.98;;;;;;;17.98;60.90;99208.91;1751023;82;25612;-62
2022/07/19 01:25:37;;;;;;;6.33;3.37;;;;;;;17.96;60.80;99211.23;1750979;81;25760;-64
2022/07/19 01:28:06;;;;;;;9.63;3.60;;;;;;;17.97;60.63;99211.45;1750598;82;27336;-63
2022/07/19 01:30:33;;;;;;;5.85;3.40;;;;;;;17.93;60.44;99205.22;1750980;81;25641;-64
2022/07/19 01:32:59;;;;;;;7.65;3.55;;;;;;;17.96;60.27;99215.39;1750949;81;25610;-64
2022/07/19 01:35:26;;;;;;;6.80;3.58;;;;;;;17.94;60.33;99214.36;1750832;81;25488;-64
2022/07/19 01:37:53;;;;;;;7.12;3.95;;;;;;;17.94;60.15;99208.81;1751105;81;25733;-64
2022/07/19 01:40:20;;;;;;;6.17;3.45;;;;;;;17.90;60.33;99211.47;1750992;81;27365;-64
2022/07/19 01:42:48;;;;;;;6.67;3.65;;;;;;;17.81;60.37;99212.17;1750932;81;25664;-62
2022/07/19 01:45:16;;;;;;;5.80;4.15;;;;;;;17.74;60.60;99215.55;1750907;82;25512;-63
2022/07/19 01:47:43;;;;;;;6.60;3.62;;;;;;;17.65;60.45;99208.72;1750588;81;26240;-63
2022/07/19 01:50:13;;;;;;;7.30;3.72;;;;;;;17.62;60.56;99203.88;1750638;82;25705;-64
2022/07/19 01:52:40;;;;;;;8.05;3.60;;;;;;;17.59;60.56;99205.17;1751226;82;29888;-63
2022/07/19 01:55:08;;;;;;;6.10;3.52;;;;;;;17.52;60.90;99204.36;1751051;81;25702;-64
2022/07/19 01:57:34;;;;;;;5.80;3.37;;;;;;;17.46;60.83;99206.56;1751029;81;25722;-61
2022/07/19 02:00:00;;;;;;;4.10;3.42;;;;;;;17.40;60.90;99205.17;1750926;81;25477;-63
2022/07/19 02:02:26;;;;;;;7.03;3.52;;;;;;;17.35;61.09;99199.85;1750837;82;25605;-63
2022/07/19 02:04:52;;;;;;;7.10;3.77;;;;;;;17.30;61.01;99189.84;1751417;81;27548;-63
2022/07/19 02:07:18;;;;;;;8.23;3.70;;;;;;;17.30;61.25;99191.22;1750823;81;25769;-63
2022/07/19 02:09:44;;;;;;;5.75;3.95;;;;;;;17.32;61.32;99193.65;1751222;82;25688;-62
2022/07/19 02:12:10;;;;;;;7.30;3.83;;;;;;;17.20;62.41;99196.63;1750895;82;25607;-63
2022/07/19 02:14:38;;;;;;;7.10;4.70;;;;;;;17.06;62.85;99196.93;1751006;82;25630;-63
2022/07/19 02:17:04;;;;;;;7.58;4.33;;;;;;;16.99;63.88;99196.70;1750596;81;27465;-63
2022/07/19 02:19:30;;;;;;;7.65;4.28;;;;;;;16.93;64.21;99197.51;1750637;81;25751;-63
2022/07/19 02:21:56;;;;;;;7.30;4.58;;;;;;;16.90;64.45;99200.36;1750990;82;25610;-62
2022/07/19 02:24:22;;;;;;;6.85;4.45;;;;;;;16.85;65.12;99196.45;1750826;81;25729;-63
2022/07/19 02:26:47;;;;;;;7.53;4.78;;;;;;;16.84;65.74;99202.33;1750949;81;25435;-63
2022/07/19 02:29:13;;;;;;;6.65;4.78;;;;;;;16.78;66.07;99203.92;1750554;82;27425;-61
2022/07/19 02:31:40;;;;;;;9.53;4.97;;;;;;;16.74;66.67;99207.71;1750505;81;25683;-62
2022/07/19 02:34:05;;;;;;;6.37;4.60;;;;;;;16.72;66.32;99203.12;1750963;82;25558;-62
2022/07/19 02:36:32;;;;;;;6.37;4.75;;;;;;;16.78;66.29;99208.67;1750796;82;25597;-61
2022/07/19 02:38:59;;;;;;;7.42;4.40;;;;;;;16.82;66.35;99206.83;1750782;81;25580;-61
2022/07/19 02:41:25;;;;;;;6.10;4.30;;;;;;;16.78;66.55;99212.82;1751107;82;28345;-63
2022/07/19 02:43:52;;;;;;;7.62;5.03;;;;;;;16.76;66.82;99209.58;1750726;82;25681;-63
2022/07/19 02:46:18;;;;;;;8.63;5.62;;;;;;;16.72;67.00;99211.42;1749416;81;25658;-62
2022/07/19 02:48:44;;;;;;;9.23;5.17;;;;;;;16.76;66.97;99213.73;1742796;81;25587;-63
2022/07/19 02:51:11;;;;;;;9.80;4.35;;;;;;;16.78;66.83;99210.84;1743159;81;25668;-63
2022/07/19 02:53:38;;;;;;;8.85;5.15;;;;;;;16.73;66.00;99206.11;1742742;82;28180;-61
2022/07/19 02:56:05;;;;;;;8.20;4.87;;;;;;;16.71;66.10;99207.02;1742863;82;25419;-63
2022/07/19 02:58:31;;;;;;;10.60;5.45;;;;;;;16.62;66.52;99210.70;1742958;82;25638;-61
2022/07/19 03:00:58;;;;;;;10.13;5.05;;;;;;;16.50;66.72;99210.65;1742746;81;26317;-63
2022/07/19 03:06:08;;;;;;;9.98;5.47;;;;;;;16.46;66.91;99213.27;1742618;82;27392;-62
2022/07/19 03:08:34;;;;;;;8.53;5.40;;;;;;;16.46;67.06;99218.81;1742875;81;25910;-63
2022/07/19 03:11:00;;;;;;;16.57;6.78;;;;;;;16.49;67.00;99215.95;1743120;81;25401;-64
2022/07/19 03:13:26;;;;;;;12.95;6.15;;;;;;;16.52;66.88;99218.83;1742584;81;25622;-64
2022/07/19 03:15:53;;;;;;;7.60;4.55;;;;;;;16.56;66.68;99213.44;1743053;82;25669;-63
2022/07/19 03:18:19;;;;;;;9.98;4.97;;;;;;;16.58;66.65;99216.66;1743059;81;27611;-64
2022/07/19 03:20:45;;;;;;;10.18;4.33;;;;;;;16.57;66.98;99219.20;1742843;82;25455;-64
2022/07/19 03:23:12;;;;;;;7.80;4.67;;;;;;;16.56;66.50;99223.91;1742593;81;25601;-63
2022/07/19 03:25:38;;;;;;;8.50;4.95;;;;;;;16.54;66.97;99226.23;1742917;81;25421;-64
2022/07/19 03:28:05;;;;;;;8.78;4.67;;;;;;;16.43;67.13;99230.55;1743231;81;26339;-64
2022/07/19 03:30:31;;;;;;;8.40;4.67;;;;;;;16.37;67.09;99234.67;1742766;81;27417;-63
2022/07/19 03:32:59;;;;;;;9.85;5.50;;;;;;;16.31;67.41;99231.31;1742806;81;25680;-64
2022/07/19 03:35:25;;;;;;;9.13;5.47;;;;;;;16.22;67.86;99234.72;1742924;81;25861;-63
2022/07/19 03:37:51;;;;;;;7.83;5.30;;;;;;;16.17;68.08;99235.16;1743066;81;25642;-63
2022/07/19 03:40:17;;;;;;;10.53;5.50;;;;;;;16.22;68.20;99244.39;1742976;82;25392;-62
2022/07/19 03:42:44;;;;;;;9.75;5.80;;;;;;;16.25;68.38;99245.92;1742608;81;27435;-64
2022/07/19 03:45:11;;;;;;;10.32;5.95;;;;;;;16.25;68.61;99245.11;1743082;82;25416;-65
2022/07/19 03:47:37;;;;;;;9.43;5.60;;;;;;;16.26;68.79;99250.89;1747012;81;25673;-63
2022/07/19 03:50:06;;;;;;;9.35;4.90;;;;;;;16.24;69.09;99251.23;1750533;82;27609;-64
2022/07/19 03:52:32;;;;;;;7.10;5.15;;;;;;;16.30;68.94;99248.47;1751061;81;25877;-63
2022/07/19 03:54:58;;;;;;;9.90;4.87;;;;;;;16.46;68.68;99249.83;1750806;82;27342;-63
2022/07/19 03:57:24;;;;;;;8.58;5.45;;;;;;;16.58;68.28;99249.06;1751058;82;25725;-64
2022/07/19 03:59:50;;;;;;;10.38;4.70;;;;;;;16.68;68.49;99241.72;1750729;81;25657;-65
2022/07/19 04:02:16;;;;;;;8.10;4.45;;;;;;;16.79;68.45;99244.30;1751084;81;25743;-64
2022/07/19 04:04:43;;;;;;;10.15;4.97;;;;;;;16.85;68.42;99246.84;1750783;81;25626;-64
2022/07/19 04:07:09;;;;;;;8.55;4.80;;;;;;;17.00;68.05;99257.27;1751102;81;27586;-64
2022/07/19 04:09:35;;;;;;;8.95;4.75;;;;;;;17.21;67.55;99254.22;1751119;81;25570;-64
2022/07/19 04:12:01;;;;;;;13.68;4.97;;;;;;;17.40;67.20;99248.93;1751053;82;25685;-65
2022/07/19 04:14:27;;;;;;;8.48;4.90;;;;;;;17.57;67.11;99255.40;1751165;81;25722;-65
2022/07/19 04:16:53;;;;;;;7.72;4.55;;;;;;;17.78;67.49;99254.45;1751145;82;25734;-65
2022/07/19 04:19:20;;;;;;;10.93;4.85;;;;;;;17.99;66.01;99253.52;1751017;81;28354;-65
2022/07/19 04:21:46;;;;;;;9.58;4.85;;;;;;;18.22;65.08;99248.88;1750966;81;25488;-63
2022/07/19 04:24:12;;;;;;;11.93;4.35;;;;;;;18.34;63.79;99249.41;1750698;82;25463;-65
2022/07/19 04:26:38;;;;;;;15.08;4.28;;;;;;;18.45;63.29;99252.50;1751176;81;25612;-65
2022/07/19 04:29:04;;;;;;;9.88;4.33;;;;;;;18.60;62.61;99260.64;1750676;81;25724;-65
2022/07/19 04:31:30;;;;;;;9.43;4.03;;;;;;;18.74;62.07;99257.45;1751221;81;27440;-65
2022/07/19 04:33:56;;;;;;;12.03;3.90;;;;;;;18.88;61.56;99252.88;1751021;81;25467;-65
2022/07/19 04:36:23;;;;;;;7.33;3.72;;;;;;;18.89;60.57;99256.69;1750864;81;25644;-65
2022/07/19 04:38:49;;;;;;;6.10;3.47;;;;;;;18.89;60.77;99254.48;1751259;81;25624;-65
2022/07/19 04:41:22;;;;;;;6.97;3.50;;;;;;;18.85;59.58;99250.81;1751075;81;25421;-65
2022/07/19 04:43:48;;;;;;;15.03;4.00;;;;;;;18.81;59.65;99247.36;1750706;82;28730;-65
2022/07/19 04:46:14;;;;;;;12.58;4.40;;;;;;;18.79;59.74;99250.25;1751149;82;25630;-65
2022/07/19 04:48:45;;;;;;;9.05;4.10;;;;;;;18.71;59.34;99247.85;1750668;81;25410;-65
2022/07/19 04:51:08;;;;;;;8.95;3.80;;;;;;;18.66;59.38;99247.55;1749662;81;25609;-64
2022/07/19 04:53:34;;;;;;;8.55;3.50;;;;;;;18.66;59.18;99250.90;1750660;82;25709;-65
2022/07/19 04:56:01;;;;;;;6.40;3.55;;;;;;;18.63;58.96;99241.89;1750885;82;27381;-64
2022/07/19 04:58:27;;;;;;;7.05;3.02;;;;;;;18.68;58.43;99236.88;1750581;82;25665;-65
2022/07/19 05:00:53;;;;;;;7.92;3.40;;;;;;;18.74;58.37;99244.97;1751300;81;25596;-65
2022/07/19 05:03:20;;;;;;;5.58;3.15;;;;;;;18.77;59.49;99239.49;1750956;81;26169;-65
2022/07/19 05:05:46;;;;;;;6.80;3.80;;;;;;;18.86;60.11;99237.14;1751112;82;25592;-65
2022/07/19 05:08:12;;;;;;;7.08;4.17;;;;;;;18.97;58.19;99238.83;1750918;82;27467;-66
2022/07/19 05:10:51;;;;;;;8.58;4.05;;;;;;;19.12;58.94;99243.62;1750562;82;25400;-65
2022/07/19 05:13:26;;;;;;;8.58;3.98;;;;;;;19.25;58.94;99245.72;1750689;81;25634;-65
2022/07/19 05:15:52;;;;;;;10.55;4.10;;;;;;;19.45;58.26;99245.02;1750767;82;25467;-66
2022/07/19 05:18:18;;;;;;;10.55;4.60;;;;;;;19.52;57.24;99249.34;1751025;82;25582;-64
2022/07/19 05:20:44;;;;;;;12.23;5.37;;;;;;;19.69;56.78;99246.17;1750939;82;28220;-63
2022/07/19 05:23:10;;;;;;;10.38;5.55;;;;;;;19.83;56.35;99249.66;1751052;82;25632;-64
2022/07/19 05:25:38;;;;;;;16.10;5.85;;;;;;;19.97;57.01;99244.41;1750584;82;25672;-66
2022/07/19 05:28:05;;;;;;;14.43;6.25;;;;;;;20.14;56.49;99243.22;1751009;82;25646;-66
2022/07/19 05:30:31;;;;;;;12.40;6.50;;;;;;;20.25;55.91;99242.06;1750964;82;25420;-65
2022/07/19 05:32:57;;;;;;;17.17;7.72;;;;;;;20.41;55.13;99243.38;1751140;81;27522;-65
2022/07/19 05:35:23;;;;;;;13.60;6.55;;;;;;;20.57;55.32;99241.09;1751184;81;25636;-66
2022/07/19 05:37:49;;;;;;;12.63;6.78;;;;;;;20.68;54.76;99242.12;1751241;81;25440;-64
2022/07/19 05:40:15;;;;;;;12.95;6.03;;;;;;;20.76;54.56;99236.11;1751054;81;25581;-66
2022/07/19 05:42:42;;;;;;;9.83;4.97;;;;;;;20.84;54.78;99240.41;1751098;81;25599;-66
2022/07/19 05:45:10;;;;;;;9.28;4.58;;;;;;;20.98;54.12;99236.52;1750600;81;27485;-65
2022/07/19 05:47:36;;;;;;;11.40;4.95;;;;;;;21.09;53.42;99238.68;1750816;81;25642;-66
2022/07/19 05:50:04;;;;;;;10.20;5.47;;;;;;;21.13;54.01;99244.53;1750610;82;25730;-66
2022/07/19 05:52:40;;;;;;;9.08;5.20;;;;;;;21.25;53.19;99234.39;1750967;81;25479;-66
2022/07/19 05:55:08;;;;;;;12.30;5.67;;;;;;;21.35;52.86;99225.39;1750735;82;25587;-66
2022/07/19 05:57:34;;;;;;;12.68;6.05;;;;;;;21.44;52.68;99229.31;1750962;81;27358;-66
2022/07/19 06:00:00;;;;;;;11.95;5.58;;;;;;;21.57;52.67;99231.31;1750903;81;25471;-66
2022/07/19 06:02:46;;;;;;;14.38;6.10;;;;;;;21.71;51.93;99229.92;1751031;81;25463;-66
2022/07/19 06:05:13;;;;;;;13.35;5.22;;;;;;;21.75;51.48;99234.38;1666175;86;25525;-64
2022/07/19 06:07:39;;;;;;;10.58;5.25;;;;;;;21.90;50.57;99236.80;1666047;86;25663;-64
2022/07/19 06:10:08;;;;;;;9.23;5.60;;;;;;;22.00;51.57;99237.33;1665919;86;28484;-63
2022/07/19 06:12:34;;;;;;;10.38;5.33;;;;;;;22.16;51.86;99232.36;1665910;86;25461;-63
2022/07/19 06:15:00;;;;;;;10.65;5.25;;;;;;;22.39;50.59;99234.85;1666000;86;25638;-63
2022/07/19 06:17:27;;;;;;;9.38;4.90;;;;;;;22.54;51.93;99234.42;1665804;86;26359;-64
2022/07/19 06:19:53;;;;;;;9.70;4.80;;;;;;;22.79;50.80;99229.71;1665808;86;25699;-64
2022/07/19 06:22:19;;;;;;;10.82;4.67;;;;;;;22.96;49.96;99221.89;1666071;86;27039;-64
2022/07/19 06:24:45;;;;;;;8.95;4.45;;;;;;;23.15;50.05;99225.89;1665692;86;25706;-63
2022/07/19 06:27:11;;;;;;;9.55;4.33;;;;;;;23.30;49.28;99232.41;1665715;86;25724;-63
2022/07/19 06:29:38;;;;;;;9.65;4.03;;;;;;;23.53;49.30;99226.40;1665779;86;27553;-63
2022/07/19 06:32:05;;;;;;;7.60;4.12;;;;;;;23.76;49.19;99228.95;1665809;86;25654;-64
2022/07/19 06:34:32;;;;;;;6.53;3.40;;;;;;;23.89;48.34;99223.82;1665788;86;27466;-64
2022/07/19 06:36:57;;;;;;;7.20;3.27;;;;;;;24.09;47.90;99229.74;1666150;86;25540;-63
2022/07/19 06:39:24;;;;;;;8.18;3.00;;;;;;;24.33;46.42;99223.27;1666054;86;25635;-64
2022/07/19 06:41:51;;;;;;;9.38;3.60;;;;;;;24.43;47.27;99221.09;1665703;86;27494;-64
2022/07/19 06:44:19;;;;;;;6.37;2.95;;;;;;;24.54;46.83;99224.75;1665833;86;25650;-63
2022/07/19 06:46:45;;;;;;;7.10;3.10;;;;;;;24.72;44.44;99222.58;1665801;86;27440;-63
2022/07/19 06:49:12;;;;;;;9.40;2.60;;;;;;;24.77;45.34;99224.19;1665924;86;25749;-64
2022/07/19 06:51:38;;;;;;;7.20;3.15;;;;;;;24.91;44.25;99222.05;1665973;86;25679;-64
2022/07/19 06:54:05;;;;;;;8.83;3.10;;;;;;;25.10;44.67;99225.05;1666033;86;25675;-64
2022/07/19 06:56:31;;;;;;;6.12;2.40;;;;;;;25.24;43.59;99227.69;1666206;86;25508;-64
2022/07/19 06:58:58;;;;;;;10.13;2.58;;;;;;;25.36;41.98;99224.45;1665905;86;27389;-64
2022/07/19 07:01:25;;;;;;;8.50;2.67;;;;;;;25.40;41.76;99218.27;1665909;86;25579;-64
2022/07/19 07:03:52;;;;;;;11.10;2.45;;;;;;;25.63;44.36;99221.27;1664980;86;25689;-64
2022/07/19 07:06:19;;;;;;;8.75;2.58;;;;;;;25.96;42.79;99214.16;1663928;86;25820;-64
2022/07/19 07:08:45;;;;;;;6.83;2.22;;;;;;;26.24;44.53;99218.09;1664009;86;25440;-63
2022/07/19 07:11:12;;;;;;;9.48;2.50;;;;;;;26.56;40.98;99219.97;1664097;86;27669;-64
2022/07/19 07:13:39;;;;;;;6.75;2.50;;;;;;;26.65;41.63;99218.11;1663796;86;25514;-64
2022/07/19 07:16:07;;;;;;;6.65;2.30;;;;;;;26.86;41.31;99216.39;1664066;86;25517;-64
2022/07/19 07:18:33;;;;;;;6.33;2.22;;;;;;;27.12;41.70;99217.03;1664113;86;25621;-64
2022/07/19 07:21:00;;;;;;;10.72;2.42;;;;;;;27.29;41.77;99215.89;1664063;86;25588;-64
2022/07/19 07:23:27;;;;;;;5.03;2.33;;;;;;;27.56;39.92;99209.01;1663935;86;27359;-63
2022/07/19 07:25:53;;;;;;;4.60;2.30;;;;;;;27.83;40.94;99221.62;1664365;86;25762;-64
2022/07/19 07:28:20;;;;;;;4.83;2.20;;;;;;;28.06;39.43;99222.97;1663939;86;25681;-64
2022/07/19 07:30:46;;;;;;;3.35;2.30;;;;;;;28.34;40.51;99219.65;1664391;86;25643;-64
2022/07/19 07:33:12;;;;;;;5.05;2.47;;;;;;;28.39;39.39;99213.55;1664296;86;25726;-65
2022/07/19 07:35:39;;;;;;;6.25;2.12;;;;;;;28.62;37.93;99219.09;1664629;86;28255;-65
2022/07/19 07:38:06;;;;;;;3.33;2.08;;;;;;;28.85;36.61;99210.49;1663927;86;25694;-65
2022/07/19 07:40:33;;;;;;;3.47;1.98;;;;;;;29.10;36.78;99219.19;1664211;86;26514;-65
2022/07/19 07:43:02;;;;;;;5.42;2.52;;;;;;;29.20;36.28;99213.80;1663898;86;25718;-65
2022/07/19 07:45:29;;;;;;;5.65;2.47;;;;;;;29.51;36.36;99208.03;1664131;86;25667;-66
2022/07/19 07:47:56;;;;;;;4.58;2.40;;;;;;;29.76;35.85;99215.28;1663956;86;27432;-66
2022/07/19 07:50:23;;;;;;;4.28;2.30;;;;;;;29.92;37.64;99218.80;1664196;86;25725;-64
2022/07/19 07:52:49;;;;;;;4.37;2.30;;;;;;;30.27;36.06;99215.70;1664327;86;25754;-66
2022/07/19 07:55:16;;;;;;;3.20;1.90;;;;;;;30.54;35.32;99216.92;1664219;86;25698;-65
2022/07/19 07:57:43;;;;;;;3.47;2.00;;;;;;;30.78;36.18;99216.03;1664126;86;25687;-65
2022/07/19 08:00:13;;;;;;;3.00;1.72;;;;;;;31.08;36.00;99214.73;1663989;86;27427;-63
2022/07/19 08:02:43;;;;;;;2.85;1.77;;;;;;;31.42;33.63;99209.23;1664296;86;26406;-63
2022/07/19 08:05:11;;;;;;;6.08;2.58;;;;;;;31.70;33.32;99205.48;1663882;85;25609;-63
2022/07/19 08:07:38;;;;;;;4.17;2.42;;;;;;;32.04;32.64;99199.88;1663965;86;25635;-63
2022/07/19 08:10:08;;;;;;;3.33;2.15;;;;;;;32.32;31.80;99200.91;1664037;86;25485;-64
2022/07/19 08:12:35;;;;;;;;;;;;;;;32.45;31.01;99204.39;1666713;86;26928;-63
2022/07/19 08:15:02;;;;;;;4.58;1.90;;;;;;;32.59;32.05;99204.59;1664070;86;25746;-62
2022/07/19 08:17:29;;;;;;;3.47;2.20;;;;;;;32.75;31.77;99202.30;1664087;86;25659;-63
2022/07/19 08:19:55;;;;;;;4.95;1.77;;;;;;;32.98;29.22;99200.34;1664125;86;25627;-63
2022/07/19 08:22:22;;;;;;;5.92;1.90;;;;;;;33.07;28.08;99196.84;1663976;86;25635;-63
2022/07/19 08:24:49;;;;;;;5.55;2.00;;;;;;;32.98;28.33;99199.70;1664094;86;27535;-61
2022/07/19 08:27:15;;;;;;;3.40;2.00;;;;;;;33.09;29.37;99205.67;1664136;86;25588;-62
2022/07/19 08:29:57;;;;;;;5.28;2.00;;;;;;;33.46;27.72;99204.62;1664516;86;25461;-63
2022/07/19 08:32:37;;;;;;;5.35;1.98;;;;;;;33.36;26.80;99198.05;1663120;86;25724;-63
2022/07/19 08:35:05;;;;;;;3.83;1.80;;;;;;;33.22;27.83;99197.14;1664106;86;25692;-63
2022/07/19 08:37:31;;;;;;;4.87;1.80;;;;;;;33.36;27.77;99195.22;1664662;86;27399;-63
2022/07/19 08:39:58;;;;;;;7.60;2.20;;;;;;;33.51;27.18;99194.73;1664231;86;25879;-63
2022/07/19 08:42:26;;;;;;;3.37;1.50;;;;;;;33.69;27.90;99194.73;1664149;86;25730;-63
2022/07/19 08:44:54;;;;;;;3.15;1.30;;;;;;;33.89;25.63;99192.38;1664282;86;25723;-63
2022/07/19 08:47:22;;;;;;;2.75;1.50;;;;;;;34.03;26.50;99194.52;1664104;86;25445;-63
2022/07/19 08:49:49;;;;;;;1.65;1.32;;;;;;;34.21;24.29;99187.38;1664192;86;27112;-63
2022/07/19 08:52:16;;;;;;;2.25;1.45;;;;;;;34.36;27.39;99186.22;1664192;86;25688;-63
2022/07/19 08:54:43;;;;;;;3.05;1.60;;;;;;;34.48;25.54;99183.11;1664100;86;25692;-64
2022/07/19 08:59:54;;;;;;;1.92;1.50;;;;;;;34.92;26.32;99186.45;1663971;86;25691;-56
2022/07/19 09:02:30;;;;;;;4.70;1.55;;;;;;;35.03;23.86;99189.62;1663993;86;27679;-63
2022/07/19 09:05:05;;;;;;;3.12;1.47;;;;;;;35.08;25.71;99187.45;1659842;86;25623;-64
2022/07/19 09:07:31;;;;;;;3.22;1.40;;;;;;;35.32;23.46;99182.59;1655761;86;25516;-63
2022/07/19 09:10:21;;;;;;;3.40;1.30;;;;;;;35.33;22.97;99185.59;1656743;86;25707;-63
2022/07/19 09:13:10;;;;;;;3.15;1.20;;;;;;;35.14;22.84;99186.98;1657188;86;25612;-63
2022/07/19 09:15:46;;;;;;;3.80;1.40;;;;;;;35.27;22.93;99183.39;1656857;86;30532;-62
2022/07/19 09:18:17;;;;;;;3.02;1.30;;;;;;;35.52;23.44;99184.98;1656940;86;25677;-63
2022/07/19 09:20:48;;;;;;;2.60;1.40;;;;;;;35.77;22.57;99188.16;1657008;86;25523;-63
2022/07/19 09:23:15;;;;;;;3.15;1.52;;;;;;;35.50;22.57;99178.96;1656934;86;25726;-63
2022/07/19 09:25:56;;;;;;;4.92;1.40;;;;;;;35.67;24.35;99182.29;1656862;86;25703;-63
2022/07/19 09:28:25;;;;;;;2.85;1.42;;;;;;;35.78;23.82;99181.84;1655363;86;29566;-61
2022/07/19 09:30:55;;;;;;;2.15;1.10;;;;;;;35.96;24.40;99178.80;1657155;86;25493;-62
2022/07/19 09:33:28;;;;;;;2.10;1.30;;;;;;;36.10;21.48;99178.77;1657007;86;25506;-63
2022/07/19 09:36:01;;;;;;;2.47;1.12;;;;;;;36.16;22.43;99184.78;1656702;86;25746;-62
2022/07/19 09:38:42;;;;;;;1.95;1.15;;;;;;;36.40;21.88;99177.59;1656989;86;25636;-63
2022/07/19 09:41:12;;;;;;;2.92;1.42;;;;;;;36.50;21.03;99174.88;1656552;86;25914;-62
2022/07/19 09:44:03;;;;;;;2.12;1.30;;;;;;;36.50;23.15;99169.17;1656595;86;27165;-62
2022/07/19 09:46:39;;;;;;;2.67;1.40;;;;;;;36.73;23.49;99169.73;1657048;86;25746;-63
2022/07/19 09:49:17;;;;;;;2.60;1.17;;;;;;;36.94;23.69;99169.11;1656708;86;25680;-63
2022/07/19 09:51:50;;;;;;;2.22;1.30;;;;;;;36.68;21.36;99156.70;1657056;86;25556;-63
2022/07/19 09:54:20;;;;;;;2.12;1.35;;;;;;;36.59;22.13;99156.12;1656992;86;28251;-63
2022/07/19 09:56:49;;;;;;;2.80;1.37;;;;;;;37.16;22.54;99164.55;1656933;86;26690;-63
2022/07/19 09:59:17;;;;;;;;;;;;;;;37.46;22.88;99163.85;1659401;86;25703;-63
2022/07/19 10:01:44;;;;;;;2.40;1.17;;;;;;;37.66;22.45;99163.20;1657007;86;25736;-63
2022/07/19 10:04:18;;;;;;;2.45;1.22;;;;;;;37.91;21.77;99159.67;1657167;86;25675;-63
2022/07/19 10:06:46;;;;;;;3.02;1.47;;;;;;;38.15;22.23;99165.28;1661618;86;27461;-61
2022/07/19 10:09:16;;;;;;;3.65;1.37;;;;;;;38.13;21.60;99164.98;1661668;86;25690;-63
2022/07/19 10:11:43;;;;;;;2.80;1.25;;;;;;;38.24;19.12;99158.69;1661658;84;25458;-63
2022/07/19 10:14:11;;;;;;;3.15;1.37;;;;;;;38.15;21.20;99164.48;1661926;86;25589;-64
2022/07/19 10:17:04;;;;;;;2.13;1.33;;;;;;;38.35;20.47;99165.23;1661772;86;25605;-64
2022/07/19 10:19:44;;;;;;;2.67;1.17;;;;;;;38.70;21.09;99157.98;1660360;86;27511;-65
2022/07/19 10:22:24;;;;;;;4.72;1.40;;;;;;;39.13;20.84;99156.75;1661721;86;25870;-64
2022/07/19 10:24:57;;;;;;;2.02;1.10;;;;;;;38.95;21.15;99157.16;1661872;86;25475;-65
2022/07/19 10:27:29;;;;;;;2.90;1.30;;;;;;;38.93;21.13;99160.39;1661457;86;27569;-64
2022/07/19 10:30:16;;;;;;;2.10;1.27;;;;;;;38.64;20.77;99161.41;1661902;86;25622;-64
2022/07/19 10:32:48;;;;;;;2.62;1.50;;;;;;;38.39;20.88;99163.62;1661627;86;27615;-64
2022/07/19 10:35:32;;;;;;;2.87;1.25;;;;;;;37.69;20.48;99163.69;1661654;86;25883;-64
2022/07/19 10:38:09;;;;;;;2.25;1.42;;;;;;;37.45;19.26;99158.00;1661392;86;25675;-62
2022/07/19 10:40:46;;;;;;;2.45;1.62;;;;;;;37.42;19.91;99158.34;1661668;86;26329;-62
2022/07/19 10:43:17;;;;;;;3.55;1.20;;;;;;;37.20;20.71;99152.31;1661632;86;25709;-63
2022/07/19 10:46:03;;;;;;;3.33;1.25;;;;;;;37.68;19.83;99152.08;1661872;86;27497;-65
2022/07/19 10:48:50;;;;;;;3.20;1.30;;;;;;;37.86;19.52;99145.41;1649329;86;25479;-64
2022/07/19 10:51:33;;;;;;;1.62;1.20;;;;;;;37.78;19.29;99158.52;1661534;86;25416;-64
2022/07/19 10:54:05;;;;;;;2.25;1.27;;;;;;;38.15;20.06;99152.41;1661767;86;25474;-65
2022/07/19 10:56:42;;;;;;;1.57;1.17;;;;;;;38.43;19.38;99149.88;1661528;86;25627;-64
2022/07/19 10:59:13;;;;;;;1.92;1.30;;;;;;;38.51;19.58;99141.02;1661851;86;27338;-65
2022/07/19 11:02:00;;;;;;;2.58;1.20;;;;;;;38.44;19.09;99137.77;1661875;86;25701;-65
2022/07/19 11:04:32;;;;;;;3.17;1.10;;;;;;;38.46;19.89;99132.34;1661376;86;25577;-65
2022/07/19 11:07:21;;;;;;;2.22;1.22;;;;;;;38.82;19.91;99130.28;1661866;86;26035;-65
2022/07/19 11:09:52;;;;;;;3.80;1.37;;;;;;;38.97;18.90;99130.21;1661918;86;25558;-61
2022/07/19 11:12:36;;;;;;;3.05;1.20;;;;;;;38.77;19.52;99128.14;1661331;86;27535;-63
2022/07/19 11:15:08;;;;;;;3.58;1.30;;;;;;;38.81;18.50;99125.05;1634542;87;25752;-65
2022/07/19 11:17:36;;;;;;;5.45;1.70;;;;;;;39.02;18.29;99124.41;1634695;87;25632;-64
2022/07/19 11:20:15;;;;;;;3.60;1.55;;;;;;;39.26;18.74;99122.01;1634805;87;25757;-62
2022/07/19 11:22:44;;;;;;;5.10;1.50;;;;;;;39.63;18.30;99122.04;1634993;86;25681;-60
2022/07/19 11:25:14;;;;;;;5.55;1.50;;;;;;;39.62;17.97;99122.68;1634863;87;28196;-64
2022/07/19 11:27:44;;;;;;;2.70;1.70;;;;;;;39.63;18.38;99120.61;1634783;87;25691;-65
2022/07/19 11:30:13;;;;;;;2.47;1.40;;;;;;;39.91;18.74;99118.63;1634446;87;25703;-64
2022/07/19 11:32:44;;;;;;;2.47;1.45;;;;;;;40.18;18.67;99123.72;1635030;87;25613;-65
2022/07/19 11:35:14;;;;;;;2.70;1.40;;;;;;;40.29;17.64;99115.81;1634615;87;25680;-65
2022/07/19 11:37:42;;;;;;;3.15;1.40;;;;;;;40.20;18.41;99113.17;1634654;87;27514;-65
2022/07/19 11:40:10;;;;;;;3.47;1.60;;;;;;;40.27;18.18;99117.77;1634799;87;25621;-65
2022/07/19 11:42:42;;;;;;;2.65;1.62;;;;;;;40.04;18.65;99113.16;1635048;87;25518;-65
2022/07/19 11:45:17;;;;;;;1.70;1.40;;;;;;;40.26;18.32;99116.20;1634784;87;25696;-65